createdAt,value
2022-10-12T00:00:08.186Z,99752.34
2022-10-12T00:02:58.487Z,99729.81
2022-10-12T00:05:45.441Z,99716.91
2022-10-12T00:08:32.694Z,99729.03
2022-10-12T00:11:29.888Z,99742.03
2022-10-12T00:14:16.399Z,99730.78
2022-10-12T00:17:03.077Z,99721.13
2022-10-12T00:19:50.335Z,99745.34
2022-10-12T00:22:36.499Z,99727.06
2022-10-12T00:25:23.083Z,99727.84
2022-10-12T00:28:09.308Z,99706.16
2022-10-12T00:30:55.865Z,99738.22
2022-10-12T00:33:42.940Z,99748.56
2022-10-12T00:36:32.409Z,99740.75
2022-10-12T00:39:18.861Z,99719.91
2022-10-12T00:42:05.569Z,99718.13
2022-10-12T00:44:52.391Z,99720.69
2022-10-12T00:47:45.109Z,99739.66
2022-10-12T00:50:34.010Z,99743.09
2022-10-12T00:53:26.202Z,99728.28
2022-10-12T00:56:19.305Z,99742.09
2022-10-12T00:59:10.874Z,99735.88
2022-10-12T01:01:57.032Z,99734.03
2022-10-12T01:04:43.616Z,99744.38
2022-10-12T01:07:30.483Z,99737.41
2022-10-12T01:10:17.145Z,99752.91
2022-10-12T01:13:03.809Z,99727.66
2022-10-12T01:16:13.621Z,99724.16
2022-10-12T01:19:18.845Z,99751.88
2022-10-12T01:22:09.257Z,99746.63
2022-10-12T01:25:30.454Z,99755.22
2022-10-12T01:28:31.702Z,99749.94
2022-10-12T01:31:25.033Z,99745.69
2022-10-12T01:34:26.177Z,99742.16
2022-10-12T01:37:23.371Z,99741.19
2022-10-12T01:40:19.923Z,99740.19
2022-10-12T01:43:07.765Z,99717.59
2022-10-12T01:45:54.182Z,99728.78
2022-10-12T01:48:41.654Z,99733.94
2022-10-12T01:51:43.181Z,99733.91
2022-10-12T01:54:48.480Z,99737.25
2022-10-12T01:57:53.412Z,99731.09
2022-10-12T02:00:56.042Z,99724.84
2022-10-12T02:04:20.035Z,99737.75
2022-10-12T02:07:18.355Z,99718.66
2022-10-12T02:10:10.475Z,99711.75
2022-10-12T02:13:00.961Z,99732.59
2022-10-12T02:15:49.642Z,99733.50
2022-10-12T02:18:42.397Z,99718.88
2022-10-12T02:21:32.205Z,99727.84
2022-10-12T02:24:20.378Z,99721.09
2022-10-12T02:27:10.558Z,99719.28
2022-10-12T02:29:57.367Z,99715.94
2022-10-12T02:33:05.967Z,99727.22
2022-10-12T02:36:29.316Z,99723.81
2022-10-12T02:39:25.254Z,99716.97
2022-10-12T02:42:17.563Z,99694.34
2022-10-12T02:45:08.100Z,99706.72
2022-10-12T02:47:57.058Z,99704.00
2022-10-12T02:50:44.453Z,99696.22
2022-10-12T02:53:31.229Z,99722.19
2022-10-12T02:56:17.338Z,99719.66
2022-10-12T02:59:03.889Z,99691.09
2022-10-12T03:01:50.394Z,99719.75
2022-10-12T03:04:36.914Z,99708.41
2022-10-12T03:07:23.409Z,99698.94
2022-10-12T03:10:09.714Z,99693.84
2022-10-12T03:12:55.865Z,99701.50
2022-10-12T03:15:42.336Z,99699.81
2022-10-12T03:18:28.692Z,99709.41
2022-10-12T03:21:14.982Z,99717.28
2022-10-12T03:24:01.285Z,99723.34
2022-10-12T03:26:47.522Z,99703.44
2022-10-12T03:29:33.750Z,99713.78
2022-10-12T03:32:20.279Z,99679.09
2022-10-12T03:35:07.164Z,99718.03
2022-10-12T03:37:53.727Z,99693.88
2022-10-12T03:40:40.139Z,99678.16
2022-10-12T03:43:26.293Z,99719.69
2022-10-12T03:46:12.538Z,99713.63
2022-10-12T03:48:58.966Z,99716.22
2022-10-12T03:51:45.196Z,99689.41
2022-10-12T03:54:31.562Z,99717.94
2022-10-12T03:57:17.767Z,99690.13
2022-10-12T04:00:05.139Z,99703.91
2022-10-12T04:02:57.689Z,99710.81
2022-10-12T04:05:43.828Z,99631.88
2022-10-12T04:08:30.622Z,99712.47
2022-10-12T04:11:16.980Z,99698.47
2022-10-12T04:14:03.320Z,99709.66
2022-10-12T04:16:49.919Z,99679.31
2022-10-12T04:19:36.678Z,99693.28
2022-10-12T04:22:24.663Z,99702.75
2022-10-12T04:25:11.980Z,99724.50
2022-10-12T04:27:58.398Z,99689.03
2022-10-12T04:30:45.677Z,99725.44
2022-10-12T04:33:32.050Z,99713.28
2022-10-12T04:36:18.417Z,99715.94
2022-10-12T04:39:05.108Z,99703.91
2022-10-12T04:41:51.301Z,99722.09
2022-10-12T04:44:38.039Z,99695.34
2022-10-12T04:47:24.605Z,99728.41
2022-10-12T04:50:10.769Z,99733.75
2022-10-12T04:52:57.182Z,99698.28
2022-10-12T04:55:43.440Z,99714.78
2022-10-12T04:58:30.060Z,99719.16
2022-10-12T05:01:16.289Z,99724.44
2022-10-12T05:04:02.842Z,99705.34
2022-10-12T05:06:49.160Z,99733.16
2022-10-12T05:09:35.532Z,99711.53
2022-10-12T05:12:21.753Z,99707.22
2022-10-12T05:15:08.686Z,99732.38
2022-10-12T05:17:55.281Z,99698.47
2022-10-12T05:20:41.595Z,99728.88
2022-10-12T05:23:27.740Z,99739.13
2022-10-12T05:26:14.231Z,99740.03
2022-10-12T05:29:00.880Z,99740.88
2022-10-12T05:31:47.342Z,99711.38
2022-10-12T05:34:33.628Z,99720.97
2022-10-12T05:37:20.048Z,99733.09
2022-10-12T05:40:06.735Z,99731.38
2022-10-12T05:42:52.928Z,99728.81
2022-10-12T05:45:39.399Z,99708.88
2022-10-12T05:48:25.991Z,99710.59
2022-10-12T05:51:12.207Z,99728.78
2022-10-12T05:53:58.495Z,99736.63
2022-10-12T05:56:44.827Z,99737.47
2022-10-12T05:59:31.025Z,99734.19
2022-10-12T06:02:18.175Z,99741.97
2022-10-12T06:05:04.957Z,99748.00
2022-10-12T06:07:51.384Z,99739.41
2022-10-12T06:13:31.120Z,99709.78
2022-10-12T06:16:17.873Z,99748.00
2022-10-12T06:19:04.319Z,99735.06
2022-10-12T06:21:50.990Z,99719.47
2022-10-12T06:24:38.300Z,99759.44
2022-10-12T06:27:25.307Z,99730.91
2022-10-12T06:30:13.160Z,99732.72
2022-10-12T06:32:59.594Z,99753.56
2022-10-12T06:35:45.855Z,99755.31
2022-10-12T06:38:32.090Z,99738.81
2022-10-12T06:41:18.231Z,99724.19
2022-10-12T06:44:05.416Z,99755.38
2022-10-12T06:46:52.086Z,99746.78
2022-10-12T06:49:38.270Z,99727.69
2022-10-12T06:52:24.830Z,99746.81
2022-10-12T06:55:11.545Z,99735.59
2022-10-12T06:57:58.009Z,99746.88
2022-10-12T07:00:44.614Z,99753.81
2022-10-12T07:03:31.722Z,99770.22
2022-10-12T07:06:18.098Z,99716.56
2022-10-12T07:09:04.405Z,99750.38
2022-10-12T07:11:50.938Z,99743.47
2022-10-12T07:14:37.316Z,99753.84
2022-10-12T07:17:23.818Z,99742.63
2022-10-12T07:20:11.334Z,99763.47
2022-10-12T07:22:57.711Z,99754.00
2022-10-12T07:25:49.616Z,99754.06
2022-10-12T07:28:37.118Z,99742.72
2022-10-12T07:31:24.111Z,99767.09
2022-10-12T07:34:10.331Z,99754.13
2022-10-12T07:36:59.633Z,99764.53
2022-10-12T07:39:46.908Z,99743.75
2022-10-12T07:42:33.372Z,99768.03
2022-10-12T07:45:20.079Z,99766.38
2022-10-12T07:48:06.550Z,99760.31
2022-10-12T07:50:53.117Z,99736.94
2022-10-12T07:53:39.688Z,99747.38
2022-10-12T07:56:27.163Z,99730.91
2022-10-12T07:59:13.848Z,99730.13
2022-10-12T08:02:00.016Z,99737.06
2022-10-12T08:04:46.203Z,99758.75
2022-10-12T08:07:32.630Z,99763.97
2022-10-12T08:10:19.545Z,99766.59
2022-10-12T08:13:05.935Z,99751.88
2022-10-12T08:15:52.223Z,99753.59
2022-10-12T08:18:38.429Z,99763.16
2022-10-12T08:21:24.695Z,99757.06
2022-10-12T08:24:12.024Z,99756.22
2022-10-12T08:27:01.306Z,99764.00
2022-10-12T08:29:48.294Z,99768.31
2022-10-12T08:32:34.782Z,99760.50
2022-10-12T08:35:21.054Z,99757.91
2022-10-12T08:38:09.302Z,99763.97
2022-10-12T08:40:55.502Z,99758.72
2022-10-12T08:44:27.230Z,99761.31
2022-10-12T08:47:22.018Z,99735.28
2022-10-12T08:50:17.206Z,99743.06
2022-10-12T08:53:19.219Z,99760.34
2022-10-12T08:56:06.010Z,99753.34
2022-10-12T08:58:53.608Z,99754.19
2022-10-12T09:02:05.666Z,99735.16
2022-10-12T09:05:03.610Z,99754.16
2022-10-12T09:08:16.960Z,99735.88
2022-10-12T09:11:28.626Z,99724.63
2022-10-12T09:14:20.976Z,99740.19
2022-10-12T09:17:38.133Z,99748.72
2022-10-12T09:20:32.992Z,99741.66
2022-10-12T09:23:25.103Z,99741.59
2022-10-12T09:26:16.584Z,99722.56
2022-10-12T09:29:13.269Z,99751.91
2022-10-12T09:32:18.500Z,99748.50
2022-10-12T09:35:08.016Z,99741.59
2022-10-12T09:37:54.932Z,99745.03
2022-10-12T09:40:41.030Z,99758.84
2022-10-12T09:43:27.313Z,99752.84
2022-10-12T09:46:15.546Z,99757.06
2022-10-12T09:49:01.777Z,99755.41
2022-10-12T09:51:58.405Z,99751.69
2022-10-12T09:55:02.482Z,99768.16
2022-10-12T09:57:55.495Z,99756.72
2022-10-12T10:00:41.818Z,99735.13
2022-10-12T10:03:31.420Z,99762.78
2022-10-12T10:06:25.212Z,99760.09
2022-10-12T10:09:30.354Z,99739.38
2022-10-12T10:12:26.667Z,99744.47
2022-10-12T10:15:22.671Z,99739.19
2022-10-12T10:18:34.036Z,99752.94
2022-10-12T10:21:37.980Z,99735.34
2022-10-12T10:24:30.964Z,99745.72
2022-10-12T10:27:37.474Z,99752.34
2022-10-12T10:30:32.133Z,99744.47
2022-10-12T10:33:21.362Z,99734.69
2022-10-12T10:36:23.368Z,99725.78
2022-10-12T10:39:18.323Z,99750.66
2022-10-12T10:42:16.420Z,99754.75
2022-10-12T10:45:07.094Z,99752.63
2022-10-12T10:48:01.217Z,99735.09
2022-10-12T10:50:56.419Z,99738.56
2022-10-12T10:53:47.355Z,99731.59
2022-10-12T10:56:33.797Z,99729.47
2022-10-12T10:59:26.290Z,99740.50
2022-10-12T11:02:40.266Z,99742.16
2022-10-12T11:05:32.058Z,99742.03
2022-10-12T11:08:29.869Z,99739.41
2022-10-12T11:11:24.592Z,99738.47
2022-10-12T11:14:25.366Z,99726.41
2022-10-12T11:17:28.239Z,99737.34
2022-10-12T11:20:19.884Z,99733.25
2022-10-12T11:23:09.541Z,99738.41
2022-10-12T11:26:06.701Z,99726.25
2022-10-12T11:28:55.328Z,99731.53
2022-10-12T11:31:45.590Z,99727.09
2022-10-12T11:34:45.330Z,99721.84
2022-10-12T11:37:57.956Z,99704.72
2022-10-12T11:44:07.289Z,99705.81
2022-10-12T11:47:01.938Z,99690.00
2022-10-12T11:49:57.910Z,99694.28
2022-10-12T11:52:48.151Z,99706.97
2022-10-12T11:55:54.877Z,99707.03
2022-10-12T11:59:01.687Z,99695.41
2022-10-12T12:02:01.422Z,99689.94
2022-10-12T12:04:49.052Z,99698.63
2022-10-12T12:07:38.687Z,99686.13
2022-10-12T12:10:28.220Z,99688.34
2022-10-12T12:13:14.880Z,99685.88
2022-10-12T12:16:01.306Z,99686.59
2022-10-12T12:19:35.067Z,99681.31
2022-10-12T12:22:49.396Z,99676.00
2022-10-12T12:25:36.920Z,99664.09
2022-10-12T12:28:24.712Z,99651.56
2022-10-12T12:31:23.339Z,99671.28
2022-10-12T12:34:17.383Z,99666.13
2022-10-12T12:37:12.343Z,99652.19
2022-10-12T12:39:59.462Z,99642.94
2022-10-12T12:42:46.071Z,99659.06
2022-10-12T12:45:32.383Z,99659.22
2022-10-12T12:48:38.477Z,99650.53
2022-10-12T12:51:35.780Z,99648.94
2022-10-12T12:54:22.725Z,99635.53
2022-10-12T12:57:33.488Z,99657.53
2022-10-12T13:00:55.926Z,99658.28
2022-10-12T13:04:17.182Z,99647.75
2022-10-12T13:07:43.652Z,99616.81
2022-10-12T13:10:58.133Z,99636.84
2022-10-12T13:13:53.599Z,99632.22
2022-10-12T13:17:32.161Z,99628.94
2022-10-12T13:20:22.962Z,99636.75
2022-10-12T13:23:16.322Z,99613.16
2022-10-12T13:26:07.670Z,99615.34
2022-10-12T13:28:55.674Z,99596.72
2022-10-12T13:31:46.404Z,99634.28
2022-10-12T13:34:42.235Z,99606.63
2022-10-12T13:37:33.688Z,99619.66
2022-10-12T13:40:52.868Z,99619.72
2022-10-12T13:43:58.287Z,99621.38
2022-10-12T13:46:47.766Z,99601.31
2022-10-12T13:49:41.721Z,99613.81
2022-10-12T13:52:32.879Z,99608.22
2022-10-12T13:55:26.130Z,99589.72
2022-10-12T13:58:27.235Z,99618.13
2022-10-12T14:01:14.112Z,99613.59
2022-10-12T14:04:05.160Z,99604.06
2022-10-12T14:07:20.109Z,99611.88
2022-10-12T14:10:18.682Z,99591.19
2022-10-12T14:13:05.858Z,99583.81
2022-10-12T14:15:52.803Z,99579.47
2022-10-12T14:18:40.622Z,99595.09
2022-10-12T14:21:33.281Z,99596.78
2022-10-12T14:24:23.649Z,99575.97
2022-10-12T14:27:23.734Z,99586.53
2022-10-12T14:30:22.768Z,99608.06
2022-10-12T14:33:30.876Z,99604.06
2022-10-12T14:36:20.406Z,99601.44
2022-10-12T14:39:14.027Z,99599.00
2022-10-12T14:42:17.971Z,99537.16
2022-10-12T14:45:23.818Z,99563.00
2022-10-12T14:48:17.234Z,99600.97
2022-10-12T14:51:04.095Z,99595.78
2022-10-12T14:54:04.567Z,99600.16
2022-10-12T14:56:50.968Z,99571.69
2022-10-12T14:59:37.345Z,99595.56
2022-10-12T15:02:29.347Z,99591.09
2022-10-12T15:05:17.828Z,99589.38
2022-10-12T15:08:07.428Z,99573.56
2022-10-12T15:10:53.659Z,99591.84
2022-10-12T15:13:40.854Z,99596.78
2022-10-12T15:16:28.722Z,99586.50
2022-10-12T15:19:14.690Z,99583.22
2022-10-12T15:22:01.218Z,99572.13
2022-10-12T15:24:48.749Z,99575.84
2022-10-12T15:27:35.200Z,99586.47
2022-10-12T15:30:21.761Z,99590.22
2022-10-12T15:33:11.155Z,99603.41
2022-10-12T15:35:57.552Z,99595.63
2022-10-12T15:38:43.838Z,99584.59
2022-10-12T15:41:30.656Z,99595.72
2022-10-12T15:44:17.389Z,99582.94
2022-10-12T15:47:04.581Z,99591.78
2022-10-12T15:49:52.627Z,99576.31
2022-10-12T15:52:41.939Z,99580.03
2022-10-12T15:55:30.238Z,99581.75
2022-10-12T15:58:16.779Z,99581.97
2022-10-12T16:01:03.070Z,99581.13
2022-10-12T16:03:49.519Z,99570.91
2022-10-12T16:06:36.550Z,99562.19
2022-10-12T16:09:22.796Z,99552.78
2022-10-12T16:12:09.311Z,99573.47
2022-10-12T16:14:55.423Z,99570.13
2022-10-12T16:17:42.089Z,99552.03
2022-10-12T16:20:30.740Z,99577.19
2022-10-12T16:23:20.483Z,99577.22
2022-10-12T16:26:10.204Z,99575.59
2022-10-12T16:28:56.964Z,99587.94
2022-10-12T16:34:34.473Z,99576.06
2022-10-12T16:37:20.976Z,99558.03
2022-10-12T16:40:07.803Z,99584.91
2022-10-12T16:42:54.237Z,99575.56
2022-10-12T16:45:40.467Z,99568.81
2022-10-12T16:48:26.714Z,99562.06
2022-10-12T16:51:13.678Z,99577.75
2022-10-12T16:53:59.909Z,99579.56
2022-10-12T16:56:46.665Z,99585.81
2022-10-12T16:59:33.704Z,99563.44
2022-10-12T17:02:21.722Z,99565.28
2022-10-12T17:05:08.636Z,99579.22
2022-10-12T17:07:55.212Z,99570.59
2022-10-12T17:10:43.449Z,99594.00
2022-10-12T17:13:32.719Z,99591.44
2022-10-12T17:16:37.694Z,99594.09
2022-10-12T17:19:28.566Z,99587.19
2022-10-12T17:22:15.498Z,99586.34
2022-10-12T17:25:02.115Z,99605.44
2022-10-12T17:27:48.373Z,99586.41
2022-10-12T17:30:35.711Z,99591.63
2022-10-12T17:33:22.029Z,99570.88
2022-10-12T17:36:34.806Z,99600.31
2022-10-12T17:39:22.681Z,99598.63
2022-10-12T17:42:09.469Z,99578.75
2022-10-12T17:44:57.278Z,99606.41
2022-10-12T17:47:43.654Z,99592.59
2022-10-12T17:50:30.068Z,99596.94
2022-10-12T17:53:16.866Z,99577.88
2022-10-12T17:56:04.351Z,99609.91
2022-10-12T17:58:58.736Z,99617.69
2022-10-12T18:01:46.053Z,99612.50
2022-10-12T18:04:32.616Z,99593.44
2022-10-12T18:07:19.060Z,99612.47
2022-10-12T18:10:07.136Z,99609.84
2022-10-12T18:12:53.296Z,99594.25
2022-10-12T18:15:43.628Z,99620.22
2022-10-12T18:18:30.167Z,99618.47
2022-10-12T18:21:17.340Z,99615.84
2022-10-12T18:24:06.899Z,99610.66
2022-10-12T18:26:53.239Z,99617.56
2022-10-12T18:29:40.846Z,99611.47
2022-10-12T18:32:27.013Z,99588.94
2022-10-12T18:35:13.337Z,99604.47
2022-10-12T18:38:00.110Z,99624.41
2022-10-12T18:40:47.523Z,99570.63
2022-10-12T18:43:34.625Z,99613.06
2022-10-12T18:46:21.113Z,99624.31
2022-10-12T18:49:10.168Z,99581.00
2022-10-12T18:51:56.317Z,99615.56
2022-10-12T18:54:44.342Z,99628.53
2022-10-12T18:57:32.783Z,99607.72
2022-10-12T19:00:20.751Z,99629.34
2022-10-12T19:03:06.969Z,99625.03
2022-10-12T19:06:07.723Z,99635.34
2022-10-12T19:08:55.873Z,99637.91
2022-10-12T19:11:42.309Z,99617.09
2022-10-12T19:14:29.177Z,99635.25
2022-10-12T19:17:16.062Z,99641.28
2022-10-12T19:20:03.310Z,99627.38
2022-10-12T19:22:49.755Z,99625.63
2022-10-12T19:25:39.807Z,99610.78
2022-10-12T19:28:26.182Z,99609.91
2022-10-12T19:31:21.603Z,99632.47
2022-10-12T19:34:10.394Z,99615.94
2022-10-12T19:36:56.659Z,99625.47
2022-10-12T19:39:44.894Z,99628.84
2022-10-12T19:42:31.682Z,99627.97
2022-10-12T19:45:18.255Z,99626.22
2022-10-12T19:48:06.188Z,99599.38
2022-10-12T19:51:04.407Z,99608.03
2022-10-12T19:53:55.922Z,99627.91
2022-10-12T19:56:42.357Z,99606.22
2022-10-12T19:59:28.480Z,99620.09
2022-10-12T20:02:15.015Z,99595.81
2022-10-12T20:05:01.648Z,99617.41
2022-10-12T20:07:48.290Z,99631.16
2022-10-12T20:10:36.920Z,99632.84
2022-10-12T20:13:23.241Z,99624.16
2022-10-12T20:16:09.652Z,99627.59
2022-10-12T20:18:56.194Z,99621.50
2022-10-12T20:21:42.357Z,99616.25
2022-10-12T20:24:28.471Z,99640.47
2022-10-12T20:27:14.739Z,99617.88
2022-10-12T20:30:01.233Z,99643.78
2022-10-12T20:32:51.872Z,99608.16
2022-10-12T20:35:49.328Z,99621.16
2022-10-12T20:38:36.852Z,99618.59
2022-10-12T20:41:23.711Z,99622.91
2022-10-12T20:44:10.369Z,99620.31
2022-10-12T20:46:56.578Z,99624.66
2022-10-12T20:49:43.857Z,99612.41
2022-10-12T20:52:30.002Z,99612.41
2022-10-12T20:55:16.372Z,99578.59
2022-10-12T20:58:02.846Z,99602.78
2022-10-12T21:00:49.353Z,99591.53
2022-10-12T21:03:36.159Z,99616.66
2022-10-12T21:06:23.790Z,99605.38
2022-10-12T21:09:14.268Z,99627.00
2022-10-12T21:12:00.549Z,99603.56
2022-10-12T21:14:46.858Z,99620.00
2022-10-12T21:17:32.929Z,99612.97
2022-10-12T21:20:19.529Z,99587.78
2022-10-12T21:23:06.054Z,99615.53
2022-10-12T21:25:53.047Z,99616.31
2022-10-12T21:28:40.291Z,99620.63
2022-10-12T21:31:32.003Z,99601.50
2022-10-12T21:34:19.254Z,99623.09
2022-10-12T21:37:05.366Z,99622.31
2022-10-12T21:39:54.381Z,99605.75
2022-10-12T21:42:40.914Z,99596.22
2022-10-12T21:45:27.345Z,99596.13
2022-10-12T21:48:13.545Z,99587.47
2022-10-12T21:51:00.414Z,99610.91
2022-10-12T21:53:47.282Z,99616.03
2022-10-12T21:56:35.673Z,99592.72
2022-10-12T21:59:22.199Z,99615.16
2022-10-12T22:02:08.701Z,99606.34
2022-10-12T22:04:57.185Z,99625.34
2022-10-12T22:07:43.726Z,99610.69
2022-10-12T22:10:29.972Z,99608.13
2022-10-12T22:13:16.468Z,99609.75
2022-10-12T22:16:11.662Z,99604.63
2022-10-12T22:19:03.965Z,99614.91
2022-10-12T22:21:53.226Z,99617.44
2022-10-12T22:24:39.985Z,99621.72
2022-10-12T22:27:26.122Z,99606.16
2022-10-12T22:30:12.590Z,99587.81
2022-10-12T22:32:58.980Z,99581.69
2022-10-12T22:35:55.936Z,99576.47
2022-10-12T22:38:42.789Z,99605.19
2022-10-12T22:41:32.075Z,99599.84
2022-10-12T22:44:18.335Z,99576.28
2022-10-12T22:47:04.728Z,99605.88
2022-10-12T22:49:51.083Z,99583.34
2022-10-12T22:52:37.214Z,99585.91
2022-10-12T22:55:23.688Z,99604.97
2022-10-12T22:58:10.141Z,99579.63
2022-10-12T23:01:09.390Z,99597.84
2022-10-12T23:03:55.951Z,99550.28
2022-10-12T23:06:42.371Z,99598.66
2022-10-12T23:09:28.508Z,99583.97
2022-10-12T23:12:16.640Z,99564.00
2022-10-12T23:15:04.713Z,99579.63
2022-10-12T23:17:51.101Z,99569.16
2022-10-12T23:20:40.975Z,99583.78
2022-10-12T23:23:27.189Z,99555.25
2022-10-12T23:26:14.395Z,99590.72
2022-10-12T23:29:00.457Z,99586.31
2022-10-12T23:31:46.880Z,99595.75
2022-10-12T23:34:33.276Z,99591.47
2022-10-12T23:37:19.668Z,99596.50
2022-10-12T23:40:07.698Z,99604.22
2022-10-12T23:42:53.907Z,99608.38
2022-10-12T23:45:40.136Z,99608.31
2022-10-12T23:48:27.107Z,99616.97
2022-10-12T23:51:13.610Z,99617.28
2022-10-12T23:54:00.441Z,99596.41
2022-10-12T23:56:46.511Z,99601.38
2022-10-12T23:59:32.818Z,99605.00
